createdAt,value
2019-02-11T00:01:41.416Z,97233.56
2019-02-11T00:04:13.075Z,97233.38
2019-02-11T00:06:44.787Z,97230.31
2019-02-11T00:09:16.499Z,97234.91
2019-02-11T00:11:49.397Z,97233.75
2019-02-11T00:14:20.864Z,97238.92
2019-02-11T00:16:52.449Z,97227.95
2019-02-11T00:19:26.887Z,97217.63
2019-02-11T00:21:58.398Z,97216.72
2019-02-11T00:24:30.134Z,97210.66
2019-02-11T00:27:01.616Z,97211.10
2019-02-11T00:29:33.187Z,97198.78
2019-02-11T00:32:04.795Z,97198.02
2019-02-11T00:34:36.330Z,97189.77
2019-02-11T00:37:08.102Z,97183.79
2019-02-11T00:39:39.559Z,97186.59
2019-02-11T00:42:11.098Z,97190.94
2019-02-11T00:44:42.733Z,97178.17
2019-02-11T00:47:14.388Z,97172.55
2019-02-11T00:49:45.967Z,97166.94
2019-02-11T00:52:17.582Z,97167.70
2019-02-11T00:54:49.093Z,97171.26
2019-02-11T00:57:20.684Z,97170.75
2019-02-11T00:59:52.253Z,97166.44
2019-02-11T01:02:23.971Z,97162.61
2019-02-11T01:04:55.520Z,97163.88
2019-02-11T01:07:27.043Z,97158.77
2019-02-11T01:09:58.741Z,97153.20
2019-02-11T01:12:30.244Z,97156.98
2019-02-11T01:15:01.903Z,97157.54
2019-02-11T01:17:33.983Z,97149.84
2019-02-11T01:20:06.191Z,97148.48
2019-02-11T01:22:37.779Z,97166.04
2019-02-11T01:25:10.331Z,97156.41
2019-02-11T01:27:41.907Z,97154.87
2019-02-11T01:30:14.488Z,97152.75
2019-02-11T01:32:46.008Z,97148.61
2019-02-11T01:35:17.676Z,97142.89
2019-02-11T01:37:49.322Z,97141.53
2019-02-11T01:40:20.855Z,97142.17
2019-02-11T01:42:54.437Z,97141.80
2019-02-11T01:45:25.668Z,97130.44
2019-02-11T01:47:57.213Z,97133.63
2019-02-11T01:50:28.732Z,97124.57
2019-02-11T01:53:00.325Z,97124.84
2019-02-11T01:55:31.831Z,97116.66
2019-02-11T01:58:03.412Z,97117.23
2019-02-11T02:00:34.913Z,97110.16
2019-02-11T02:03:07.562Z,97101.52
2019-02-11T02:05:39.185Z,97106.38
2019-02-11T02:08:10.751Z,97099.44
2019-02-11T02:10:43.603Z,97091.80
2019-02-11T02:13:16.700Z,97095.11
2019-02-11T02:15:48.234Z,97094.03
2019-02-11T02:18:19.812Z,97095.80
2019-02-11T02:20:51.380Z,97098.82
2019-02-11T02:23:22.959Z,97102.97
2019-02-11T02:25:54.468Z,97092.44
2019-02-11T02:28:26.169Z,97090.38
2019-02-11T02:30:57.694Z,97078.30
2019-02-11T02:33:29.308Z,97076.91
2019-02-11T02:36:00.888Z,97078.31
2019-02-11T02:38:32.447Z,97075.44
2019-02-11T02:41:03.973Z,97076.27
2019-02-11T02:43:35.476Z,97074.06
2019-02-11T02:46:07.686Z,97079.55
2019-02-11T02:48:39.170Z,97076.88
2019-02-11T02:51:10.699Z,97073.70
2019-02-11T02:53:42.259Z,97078.15
2019-02-11T02:56:13.881Z,97076.51
2019-02-11T02:58:45.341Z,97078.60
2019-02-11T03:01:16.882Z,97069.16
2019-02-11T03:03:48.490Z,97058.34
2019-02-11T03:06:20.190Z,97062.22
2019-02-11T03:08:51.717Z,97063.12
2019-02-11T03:11:23.393Z,97061.27
2019-02-11T03:14:03.821Z,97058.80
2019-02-11T03:16:28.343Z,97058.04
2019-02-11T03:18:59.927Z,97050.42
2019-02-11T03:21:31.550Z,97060.59
2019-02-11T03:24:03.251Z,97054.21
2019-02-11T03:26:34.856Z,97040.95
2019-02-11T03:29:06.616Z,97041.75
2019-02-11T03:31:38.202Z,97044.52
2019-02-11T03:34:09.766Z,97038.27
2019-02-11T03:36:41.479Z,97038.02
2019-02-11T03:39:12.992Z,97030.22
2019-02-11T03:41:44.664Z,97030.44
2019-02-11T03:44:16.339Z,97023.74
2019-02-11T03:46:47.928Z,97020.67
2019-02-11T03:49:19.643Z,97014.63
2019-02-11T03:51:51.338Z,97000.28
2019-02-11T03:54:22.846Z,97003.34
2019-02-11T03:56:54.575Z,97000.61
2019-02-11T03:59:26.208Z,97007.42
2019-02-11T04:01:57.887Z,97004.42
2019-02-11T04:04:29.510Z,97003.59
2019-02-11T04:07:01.155Z,97003.86
2019-02-11T04:09:32.745Z,96993.41
2019-02-11T04:12:04.354Z,96987.59
2019-02-11T04:14:35.995Z,96993.86
2019-02-11T04:17:07.569Z,97005.58
2019-02-11T04:19:39.057Z,97012.72
2019-02-11T04:22:11.263Z,97011.37
2019-02-11T04:24:42.818Z,97003.98
2019-02-11T04:27:14.440Z,97005.39
2019-02-11T04:29:46.098Z,97003.33
2019-02-11T04:32:17.578Z,97003.53
2019-02-11T04:34:49.130Z,97016.60
2019-02-11T04:37:20.577Z,97014.42
2019-02-11T04:39:52.288Z,97013.54
2019-02-11T04:42:24.920Z,97025.34
2019-02-11T04:44:56.457Z,97020.47
2019-02-11T04:47:27.940Z,97023.74
2019-02-11T04:49:59.478Z,97016.45
2019-02-11T04:52:30.979Z,97009.72
2019-02-11T04:55:02.598Z,96998.28
2019-02-11T04:57:34.198Z,97001.42
2019-02-11T05:00:06.707Z,97001.17
2019-02-11T05:02:41.251Z,96997.34
2019-02-11T05:05:13.202Z,96996.77
2019-02-11T05:07:44.852Z,97011.77
2019-02-11T05:10:16.563Z,97005.24
2019-02-11T05:12:48.090Z,96994.03
2019-02-11T05:15:19.624Z,96989.13
2019-02-11T05:17:51.204Z,96980.38
2019-02-11T05:20:22.834Z,96975.43
2019-02-11T05:22:54.435Z,96967.84
2019-02-11T05:25:25.943Z,96959.03
2019-02-11T05:27:57.482Z,96956.09
2019-02-11T05:30:29.126Z,96942.20
2019-02-11T05:33:00.926Z,96953.11
2019-02-11T05:35:32.584Z,96952.77
2019-02-11T05:38:04.202Z,96955.91
2019-02-11T05:40:35.913Z,96957.50
2019-02-11T05:43:09.843Z,96957.50
2019-02-11T05:45:41.399Z,96966.19
2019-02-11T05:48:12.960Z,96968.14
2019-02-11T05:50:44.453Z,96963.53
2019-02-11T05:53:15.882Z,96956.91
2019-02-11T05:55:47.582Z,96952.97
2019-02-11T05:58:19.156Z,96951.09
2019-02-11T06:00:50.745Z,96942.00
2019-02-11T06:03:22.249Z,96935.88
2019-02-11T06:05:53.898Z,96931.02
2019-02-11T06:08:25.358Z,96935.88
2019-02-11T06:10:56.949Z,96939.27
2019-02-11T06:13:28.499Z,96937.43
2019-02-11T06:16:02.881Z,96935.56
2019-02-11T06:18:34.370Z,96941.09
2019-02-11T06:21:06.082Z,96954.41
2019-02-11T06:23:37.622Z,96951.02
2019-02-11T06:26:09.180Z,96938.19
2019-02-11T06:28:42.441Z,96935.51
2019-02-11T06:31:13.974Z,96941.88
2019-02-11T06:33:46.834Z,96946.23
2019-02-11T06:36:18.475Z,96937.48
2019-02-11T06:38:50.114Z,96942.18
2019-02-11T06:41:21.639Z,96948.27
2019-02-11T06:43:53.197Z,96945.66
2019-02-11T06:46:24.799Z,96948.86
2019-02-11T06:48:56.341Z,96950.51
2019-02-11T06:51:28.050Z,96949.86
2019-02-11T06:53:59.827Z,96954.84
2019-02-11T06:56:31.408Z,96966.48
2019-02-11T06:59:02.945Z,96963.72
2019-02-11T07:01:34.593Z,96957.63
2019-02-11T07:04:08.443Z,96957.32
2019-02-11T07:06:40.030Z,96954.06
2019-02-11T07:09:11.561Z,96948.12
2019-02-11T07:11:43.110Z,96945.28
2019-02-11T07:14:14.503Z,96946.31
2019-02-11T07:16:46.078Z,96943.58
2019-02-11T07:19:17.647Z,96936.41
2019-02-11T07:21:49.190Z,96927.56
2019-02-11T07:24:20.760Z,96912.06
2019-02-11T07:26:52.280Z,96913.98
2019-02-11T07:29:23.888Z,96913.66
2019-02-11T07:31:55.462Z,96908.20
2019-02-11T07:34:26.995Z,96891.45
2019-02-11T07:36:58.457Z,96893.38
2019-02-11T07:39:30.087Z,96896.97
2019-02-11T07:42:18.837Z,96893.81
2019-02-11T07:45:02.471Z,96894.20
2019-02-11T07:47:36.971Z,96898.09
2019-02-11T07:50:08.729Z,96910.22
2019-02-11T07:52:41.633Z,96906.48
2019-02-11T07:55:13.287Z,96906.42
2019-02-11T07:57:44.778Z,96904.63
2019-02-11T08:00:16.504Z,96900.34
2019-02-11T08:02:49.844Z,96892.20
2019-02-11T08:05:21.695Z,96888.83
2019-02-11T08:07:53.291Z,96889.38
2019-02-11T08:10:24.838Z,96885.81
2019-02-11T08:12:56.367Z,96884.02
2019-02-11T08:15:28.157Z,96880.70
2019-02-11T08:18:06.691Z,96873.47
2019-02-11T08:20:38.229Z,96876.18
2019-02-11T08:23:13.594Z,96879.88
2019-02-11T08:25:44.262Z,96890.31
2019-02-11T08:28:19.496Z,96887.77
2019-02-11T08:30:49.103Z,96897.30
2019-02-11T08:33:20.719Z,96893.44
2019-02-11T08:35:52.381Z,96883.25
2019-02-11T08:38:24.109Z,96887.00
2019-02-11T08:40:55.741Z,96892.20
2019-02-11T08:43:27.412Z,96893.00
2019-02-11T08:45:59.101Z,96893.44
2019-02-11T08:48:30.693Z,96882.93
2019-02-11T08:51:02.262Z,96889.75
2019-02-11T08:53:35.233Z,96894.64
2019-02-11T08:56:06.840Z,96888.00
2019-02-11T08:58:38.437Z,96883.70
2019-02-11T09:01:13.611Z,96886.34
2019-02-11T09:03:45.255Z,96883.28
2019-02-11T09:06:18.062Z,96885.95
2019-02-11T09:08:52.682Z,96889.66
2019-02-11T09:11:24.285Z,96881.88
2019-02-11T09:13:55.908Z,96879.38
2019-02-11T09:16:27.565Z,96885.11
2019-02-11T09:18:59.146Z,96882.21
2019-02-11T09:21:30.754Z,96892.52
2019-02-11T09:24:02.391Z,96888.19
2019-02-11T09:26:33.851Z,96890.95
2019-02-11T09:29:05.617Z,96889.42
2019-02-11T09:31:37.170Z,96892.50
2019-02-11T09:34:08.810Z,96882.54
2019-02-11T09:36:40.370Z,96877.35
2019-02-11T09:39:11.957Z,96868.31
2019-02-11T09:41:43.765Z,96869.95
2019-02-11T09:44:15.314Z,96854.44
2019-02-11T09:46:46.828Z,96856.93
2019-02-11T09:49:18.534Z,96855.38
2019-02-11T09:51:50.728Z,96850.43
2019-02-11T09:54:22.324Z,96849.88
2019-02-11T09:56:53.815Z,96839.53
2019-02-11T09:59:25.399Z,96827.61
2019-02-11T10:01:58.093Z,96822.58
2019-02-11T10:04:29.684Z,96812.06
2019-02-11T10:07:01.315Z,96809.02
2019-02-11T10:09:33.020Z,96807.78
2019-02-11T10:12:04.761Z,96796.53
2019-02-11T10:14:39.945Z,96793.02
2019-02-11T10:17:11.455Z,96786.60
2019-02-11T10:19:43.117Z,96773.23
2019-02-11T10:22:14.619Z,96774.99
2019-02-11T10:24:46.317Z,96780.66
2019-02-11T10:27:17.857Z,96777.89
2019-02-11T10:29:49.460Z,96778.84
2019-02-11T10:32:21.100Z,96778.84
2019-02-11T10:34:53.837Z,96771.75
2019-02-11T10:37:25.539Z,96767.62
2019-02-11T10:39:57.149Z,96769.44
2019-02-11T10:42:28.878Z,96769.44
2019-02-11T10:45:00.605Z,96763.08
2019-02-11T10:47:32.335Z,96765.41
2019-02-11T10:50:04.215Z,96759.61
2019-02-11T10:52:35.957Z,96752.24
2019-02-11T10:55:09.153Z,96752.24
2019-02-11T10:57:41.436Z,96754.50
2019-02-11T11:00:15.778Z,96758.93
2019-02-11T11:02:47.389Z,96735.33
2019-02-11T11:05:19.100Z,96735.33
2019-02-11T11:07:50.938Z,96737.71
2019-02-11T11:10:28.370Z,96743.69
2019-02-11T11:13:01.136Z,96739.58
2019-02-11T11:15:32.909Z,96733.31
2019-02-11T11:18:04.815Z,96739.11
2019-02-11T11:20:38.139Z,96737.59
2019-02-11T11:23:09.805Z,96732.97
2019-02-11T11:25:41.352Z,96739.05
2019-02-11T11:28:13.029Z,96722.38
2019-02-11T11:30:44.772Z,96725.56
2019-02-11T11:33:28.692Z,96715.36
2019-02-11T11:36:00.547Z,96718.85
2019-02-11T11:38:32.213Z,96716.20
2019-02-11T11:41:04.242Z,96709.73
2019-02-11T11:43:35.982Z,96714.66
2019-02-11T11:46:07.615Z,96710.68
2019-02-11T11:48:39.357Z,96707.66
2019-02-11T11:51:10.981Z,96704.45
2019-02-11T11:53:42.564Z,96698.27
2019-02-11T11:56:14.085Z,96698.22
2019-02-11T11:58:45.817Z,96682.59
2019-02-11T12:01:19.387Z,96682.59
2019-02-11T12:03:51.118Z,96682.23
2019-02-11T12:06:25.911Z,96672.13
2019-02-11T12:08:59.369Z,96672.13
2019-02-11T12:11:31.996Z,96658.25
2019-02-11T12:14:07.507Z,96649.43
2019-02-11T12:16:56.210Z,96642.49
2019-02-11T12:19:17.143Z,96635.11
2019-02-11T12:21:50.246Z,96639.16
2019-02-11T12:24:24.732Z,96644.48
2019-02-11T12:26:57.293Z,96646.39
2019-02-11T12:29:29.768Z,96652.09
2019-02-11T12:32:01.784Z,96647.61
2019-02-11T12:34:34.353Z,96649.54
2019-02-11T12:37:09.491Z,96641.14
2019-02-11T12:39:43.997Z,96633.93
2019-02-11T12:42:17.702Z,96650.02
2019-02-11T12:44:53.421Z,96658.69
2019-02-11T12:47:28.479Z,96654.64
2019-02-11T12:50:01.037Z,96658.52
2019-02-11T12:52:32.678Z,96650.51
2019-02-11T12:55:07.629Z,96656.75
2019-02-11T12:57:37.717Z,96653.56
2019-02-11T13:00:16.248Z,96653.64
2019-02-11T13:02:46.011Z,96653.64
2019-02-11T13:05:22.077Z,96646.31
2019-02-11T13:07:53.647Z,96645.63
2019-02-11T13:10:25.228Z,96643.34
2019-02-11T13:12:56.913Z,96639.41
2019-02-11T13:15:56.775Z,96640.31
2019-02-11T13:18:04.964Z,96645.46
2019-02-11T13:20:37.726Z,96651.47
2019-02-11T13:23:09.436Z,96651.47
2019-02-11T13:25:41.310Z,96650.24
2019-02-11T13:28:13.019Z,96651.53
2019-02-11T13:30:44.685Z,96646.96
2019-02-11T13:33:16.385Z,96642.63
2019-02-11T13:35:48.050Z,96636.11
2019-02-11T13:38:20.444Z,96641.75
2019-02-11T13:40:51.934Z,96641.14
2019-02-11T13:43:23.475Z,96639.36
2019-02-11T13:45:54.997Z,96639.36
2019-02-11T13:48:26.741Z,96641.39
2019-02-11T13:51:00.074Z,96646.70
2019-02-11T13:53:31.846Z,96640.09
2019-02-11T13:56:06.885Z,96641.64
2019-02-11T13:58:38.467Z,96630.38
2019-02-11T14:01:12.336Z,96618.23
2019-02-11T14:03:43.996Z,96626.34
2019-02-11T14:06:17.311Z,96622.44
2019-02-11T14:08:50.037Z,96605.64
2019-02-11T14:11:23.058Z,96609.72
2019-02-11T14:14:02.649Z,96610.91
2019-02-11T14:16:28.151Z,96616.34
2019-02-11T14:19:00.042Z,96619.52
2019-02-11T14:21:31.712Z,96620.12
2019-02-11T14:24:03.427Z,96624.59
2019-02-11T14:26:35.161Z,96612.83
2019-02-11T14:29:06.855Z,96602.66
2019-02-11T14:31:38.550Z,96603.59
2019-02-11T14:34:11.086Z,96602.92
2019-02-11T14:36:43.979Z,96606.06
2019-02-11T14:39:16.919Z,96609.60
2019-02-11T14:41:48.737Z,96609.50
2019-02-11T14:44:20.621Z,96605.05
2019-02-11T14:46:52.359Z,96599.11
2019-02-11T14:49:26.912Z,96592.91
2019-02-11T14:51:58.639Z,96591.84
2019-02-11T14:54:30.409Z,96595.32
2019-02-11T14:57:02.205Z,96592.60
2019-02-11T14:59:33.719Z,96593.48
2019-02-11T15:02:05.399Z,96605.06
2019-02-11T15:04:36.924Z,96608.09
2019-02-11T15:07:08.452Z,96600.58
2019-02-11T15:09:40.046Z,96595.88
2019-02-11T15:12:11.545Z,96597.41
2019-02-11T15:14:43.024Z,96594.83
2019-02-11T15:17:14.617Z,96588.38
2019-02-11T15:19:46.147Z,96585.56
2019-02-11T15:22:17.667Z,96602.23
2019-02-11T15:24:49.374Z,96604.35
2019-02-11T15:27:20.938Z,96603.26
2019-02-11T15:29:52.414Z,96589.16
2019-02-11T15:32:26.953Z,96587.53
2019-02-11T15:34:58.629Z,96573.80
2019-02-11T15:37:31.768Z,96560.98
2019-02-11T15:40:03.357Z,96561.93
2019-02-11T15:42:34.969Z,96557.67
2019-02-11T15:45:07.897Z,96571.72
2019-02-11T15:47:39.437Z,96561.06
2019-02-11T15:50:12.480Z,96562.88
2019-02-11T15:52:45.129Z,96559.41
2019-02-11T15:55:18.421Z,96561.14
2019-02-11T15:57:50.005Z,96553.14
2019-02-11T16:00:22.456Z,96542.91
2019-02-11T16:02:54.138Z,96558.74
2019-02-11T16:05:25.740Z,96540.81
2019-02-11T16:07:58.860Z,96538.20
2019-02-11T16:10:30.469Z,96538.39
2019-02-11T16:13:02.779Z,96537.33
2019-02-11T16:15:34.519Z,96532.80
2019-02-11T16:18:07.267Z,96537.59
2019-02-11T16:20:38.806Z,96541.36
2019-02-11T16:23:10.559Z,96536.12
2019-02-11T16:25:42.110Z,96536.54
2019-02-11T16:28:15.092Z,96535.67
2019-02-11T16:30:47.275Z,96540.96
2019-02-11T16:33:18.987Z,96537.89
2019-02-11T16:35:50.706Z,96534.19
2019-02-11T16:38:22.441Z,96543.82
2019-02-11T16:40:57.014Z,96546.80
2019-02-11T16:43:28.625Z,96538.47
2019-02-11T16:46:00.340Z,96536.61
2019-02-11T16:48:32.035Z,96530.23
2019-02-11T16:51:03.687Z,96541.55
2019-02-11T16:53:35.216Z,96532.02
2019-02-11T16:56:06.848Z,96525.75
2019-02-11T16:58:38.465Z,96516.58
2019-02-11T17:01:11.323Z,96518.58
2019-02-11T17:03:42.971Z,96522.66
2019-02-11T17:06:14.563Z,96526.61
2019-02-11T17:08:46.158Z,96528.03
2019-02-11T17:11:17.602Z,96522.52
2019-02-11T17:13:49.222Z,96518.09
2019-02-11T17:16:21.008Z,96520.41
2019-02-11T17:18:52.628Z,96512.02
2019-02-11T17:21:43.027Z,96512.16
2019-02-11T17:24:14.601Z,96506.59
2019-02-11T17:26:46.075Z,96495.16
2019-02-11T17:29:17.712Z,96497.39
2019-02-11T17:31:49.223Z,96491.80
2019-02-11T17:34:20.833Z,96490.14
2019-02-11T17:36:54.944Z,96504.35
2019-02-11T17:39:26.649Z,96504.91
2019-02-11T17:41:58.248Z,96494.16
2019-02-11T17:44:31.465Z,96493.77
2019-02-11T17:47:02.968Z,96499.28
2019-02-11T17:49:34.626Z,96482.32
2019-02-11T17:52:07.484Z,96491.89
2019-02-11T17:54:39.137Z,96479.95
2019-02-11T17:57:10.659Z,96478.45
2019-02-11T17:59:42.527Z,96460.20
2019-02-11T18:02:15.988Z,96450.98
2019-02-11T18:04:47.536Z,96454.59
2019-02-11T18:07:19.279Z,96454.59
2019-02-11T18:09:50.780Z,96462.44
2019-02-11T18:12:24.504Z,96462.19
2019-02-11T18:14:55.895Z,96459.25
2019-02-11T18:17:27.636Z,96460.31
2019-02-11T18:19:59.329Z,96462.06
2019-02-11T18:22:33.166Z,96456.01
2019-02-11T18:25:04.683Z,96455.76
2019-02-11T18:27:36.238Z,96452.11
2019-02-11T18:30:08.399Z,96455.71
2019-02-11T18:32:40.039Z,96455.96
2019-02-11T18:35:14.134Z,96454.22
2019-02-11T18:37:45.967Z,96445.34
2019-02-11T18:40:17.878Z,96442.89
2019-02-11T18:42:51.961Z,96447.70
2019-02-11T18:45:25.558Z,96445.72
2019-02-11T18:47:57.952Z,96442.10
2019-02-11T18:50:29.501Z,96450.28
2019-02-11T18:53:01.202Z,96452.02
2019-02-11T18:55:38.755Z,96458.20
2019-02-11T18:58:10.318Z,96450.36
2019-02-11T19:00:41.937Z,96442.89
2019-02-11T19:03:14.809Z,96436.55
2019-02-11T19:05:46.391Z,96430.81
2019-02-11T19:08:17.963Z,96426.71
2019-02-11T19:10:49.573Z,96425.66
2019-02-11T19:13:21.161Z,96429.78
2019-02-11T19:15:52.812Z,96430.36
2019-02-11T19:18:24.434Z,96429.86
2019-02-11T19:20:57.663Z,96432.64
2019-02-11T19:23:29.268Z,96430.14
2019-02-11T19:26:00.995Z,96433.53
2019-02-11T19:28:32.758Z,96428.73
2019-02-11T19:31:04.350Z,96438.22
2019-02-11T19:33:36.035Z,96427.94
2019-02-11T19:36:07.666Z,96423.77
2019-02-11T19:38:39.199Z,96440.14
2019-02-11T19:41:10.828Z,96430.31
2019-02-11T19:43:42.455Z,96431.02
2019-02-11T19:46:13.906Z,96426.70
2019-02-11T19:48:46.615Z,96426.00
2019-02-11T19:51:18.340Z,96417.33
2019-02-11T19:53:49.910Z,96401.91
2019-02-11T19:56:21.559Z,96398.88
2019-02-11T19:58:53.180Z,96396.88
2019-02-11T20:01:24.876Z,96388.95
2019-02-11T20:03:56.691Z,96391.53
2019-02-11T20:06:28.206Z,96396.92
2019-02-11T20:08:59.965Z,96381.61
2019-02-11T20:11:31.585Z,96382.89
2019-02-11T20:14:04.796Z,96370.28
2019-02-11T20:16:36.273Z,96374.26
2019-02-11T20:19:07.809Z,96368.75
2019-02-11T20:21:39.298Z,96370.25
2019-02-11T20:24:10.990Z,96364.06
2019-02-11T20:26:44.216Z,96365.34
2019-02-11T20:29:15.931Z,96373.55
2019-02-11T20:31:47.590Z,96376.71
2019-02-11T20:34:19.212Z,96359.87
2019-02-11T20:36:50.761Z,96373.77
2019-02-11T20:39:25.506Z,96392.11
2019-02-11T20:42:01.014Z,96389.41
2019-02-11T20:44:33.238Z,96372.36
2019-02-11T20:47:10.192Z,96365.13
2019-02-11T20:49:41.860Z,96377.88
2019-02-11T20:52:14.721Z,96372.52
2019-02-11T20:54:46.250Z,96370.86
2019-02-11T20:57:17.868Z,96372.73
2019-02-11T20:59:52.440Z,96363.97
2019-02-11T21:02:24.093Z,96350.28
2019-02-11T21:04:55.731Z,96345.25
2019-02-11T21:07:28.875Z,96343.05
2019-02-11T21:10:00.614Z,96346.66
2019-02-11T21:12:32.241Z,96354.74
2019-02-11T21:15:03.754Z,96353.45
2019-02-11T21:17:35.330Z,96359.43
2019-02-11T21:20:08.498Z,96345.01
2019-02-11T21:22:41.688Z,96344.22
2019-02-11T21:25:13.389Z,96341.85
2019-02-11T21:27:44.982Z,96340.92
2019-02-11T21:30:16.681Z,96335.20
2019-02-11T21:32:48.301Z,96341.27
2019-02-11T21:35:19.836Z,96346.41
2019-02-11T21:37:51.454Z,96348.16
2019-02-11T21:40:26.019Z,96345.96
2019-02-11T21:42:57.750Z,96347.34
2019-02-11T21:45:29.281Z,96344.31
2019-02-11T21:48:00.886Z,96331.42
2019-02-11T21:50:34.158Z,96337.39
2019-02-11T21:53:05.731Z,96338.09
2019-02-11T21:55:37.389Z,96343.14
2019-02-11T21:58:08.890Z,96335.43
2019-02-11T22:00:40.451Z,96345.47
2019-02-11T22:03:12.588Z,96335.30
2019-02-11T22:05:44.576Z,96328.75
2019-02-11T22:08:16.141Z,96320.80
2019-02-11T22:10:47.756Z,96315.06
2019-02-11T22:13:19.393Z,96312.50
2019-02-11T22:15:51.011Z,96324.66
2019-02-11T22:18:22.669Z,96328.14
2019-02-11T22:20:54.290Z,96315.87
2019-02-11T22:23:25.905Z,96315.99
2019-02-11T22:25:57.538Z,96319.61
2019-02-11T22:28:29.222Z,96319.48
2019-02-11T22:31:00.891Z,96295.76
2019-02-11T22:33:32.509Z,96309.56
2019-02-11T22:36:04.231Z,96314.92
2019-02-11T22:38:35.778Z,96318.44
2019-02-11T22:41:08.405Z,96312.81
2019-02-11T22:43:39.939Z,96299.03
2019-02-11T22:46:11.528Z,96306.05
2019-02-11T22:48:43.311Z,96302.64
2019-02-11T22:51:14.953Z,96299.25
2019-02-11T22:53:47.051Z,96323.09
2019-02-11T22:56:20.353Z,96324.99
2019-02-11T22:58:51.936Z,96318.32
2019-02-11T23:01:23.766Z,96321.81
2019-02-11T23:03:56.075Z,96324.38
2019-02-11T23:06:27.615Z,96314.09
2019-02-11T23:08:59.356Z,96304.85
2019-02-11T23:11:30.846Z,96307.79
2019-02-11T23:14:02.413Z,96315.38
2019-02-11T23:16:33.938Z,96327.08
2019-02-11T23:19:06.046Z,96319.48
2019-02-11T23:21:40.496Z,96312.47
2019-02-11T23:24:18.233Z,96295.39
2019-02-11T23:26:49.953Z,96296.67
2019-02-11T23:29:21.501Z,96292.84
2019-02-11T23:31:53.112Z,96283.73
2019-02-11T23:34:24.675Z,96270.05
2019-02-11T23:36:56.359Z,96276.80
2019-02-11T23:39:28.948Z,96273.31
2019-02-11T23:42:00.577Z,96277.30
2019-02-11T23:44:32.054Z,96281.83
2019-02-11T23:47:03.744Z,96272.50
2019-02-11T23:49:35.274Z,96267.45
2019-02-11T23:52:06.916Z,96272.38
2019-02-11T23:54:39.634Z,96273.41
2019-02-11T23:57:11.195Z,96271.33
2019-02-11T23:59:42.767Z,96275.19
